Date,TemperatureHighF,TemperatureAvgF,TemperatureLowF,DewpointHighF,DewpointAvgF,DewpointLowF,HumidityHigh,HumidityAvg,HumidityLow,PressureMaxIn,PressureMinIn,WindSpeedMaxMPH,WindSpeedAvgMPH,GustSpeedMaxMPH,PrecipitationSumIn
2013-3-1,55.6,54.4,52.9,54.3,33.8,-44.6,98,62,1,30.33,30.25,14,2,0,0.08
2013-3-2,54.5,48.7,39.4,48.3,38.3,-5.9,83,70,12,30.26,30.04,7,0,0,0.53
2013-3-3,46.6,40.2,34.2,39.2,29.7,-53.9,98,71,7,30.31,30.17,0,0,0,0.00
2013-3-4,51.6,40.2,29.8,36.5,26.6,4.6,79,58,32,30.31,29.94,0,0,0,0.00
2013-3-5,51.1,44.1,39.9,38.9,31.3,20.6,80,61,42,29.93,29.69,0,0,0,0.00
2013-3-6,43.9,42.2,40.6,42.1,16.1,-52.4,98,49,1,29.87,29.57,1,0,0,0.68
2013-3-7,49.3,43.9,39.6,47.5,38.4,-51.7,98,87,8,30.10,29.88,0,0,0,0.42
2013-3-8,49.3,41.5,35.1,42.5,34.2,-55.3,98,81,7,30.22,30.08,0,0,0,0.01
2013-3-9,53.8,41.5,31.8,43.6,32.3,-42.7,98,76,2,30.49,30.23,0,0,0,0.00
2013-3-10,46.9,41.8,36.3,42.5,30.1,-54.5,98,72,5,30.51,30.42,0,0,0,0.00
2013-3-11,51.1,45.9,41.0,46.6,39.3,-48.9,98,83,12,30.46,30.15,0,0,0,0.00
2013-3-12,54.3,52.0,47.3,53.2,41.2,-46.2,98,77,3,30.13,30.02,8,1,0,0.29
2013-3-13,54.1,52.7,51.3,53.5,43.9,-46.2,98,85,2,30.18,30.06,11,1,0,0.34
2013-3-14,53.4,51.3,48.6,52.8,36.4,-46.2,98,69,3,30.13,30.02,1,0,0,0.01
2013-3-15,57.0,52.4,49.1,51.3,39.3,-13.5,98,68,6,30.21,30.11,1,0,0,0.00
2013-3-16,50.0,44.1,35.6,47.5,16.1,-53.9,98,52,2,30.11,29.87,8,0,0,0.66
2013-3-17,46.6,40.0,37.2,39.8,33.7,-30.6,98,83,4,30.21,29.97,0,0,0,0.08
2013-3-18,49.3,42.5,37.4,42.1,28.5,-54.0,98,65,1,30.26,30.09,2,0,0,0.18
2013-3-19,56.1,42.7,33.3,41.9,28.2,-56.4,98,62,8,30.24,29.58,2,0,0,0.36
2013-3-20,51.3,45.1,34.3,50.8,38.2,-25.9,98,81,6,30.00,29.35,19,1,0,0.82
2013-3-21,43.5,38.3,34.9,37.8,32.3,-14.8,98,82,9,30.20,30.01,0,0,0,0.50
2013-3-22,43.7,36.5,30.6,36.0,30.1,-23.6,98,81,8,30.38,30.19,0,0,0,1.56
2013-3-23,48.0,37.5,30.2,34.3,29.1,-45.8,98,75,2,30.42,30.30,0,0,0,0.03
2013-3-24,54.3,40.3,29.3,35.4,20.7,-59.8,98,53,1,30.32,30.11,0,0,0,0.00
2013-3-25,59.0,46.2,34.3,36.6,31.6,27.4,76,59,33,30.13,29.91,0,0,0,0.00
2013-3-26,58.8,48.4,40.8,43.4,37.7,32.5,74,67,46,30.02,29.93,0,0,0,0.00
2013-3-27,56.7,48.3,42.1,46.3,33.6,-48.8,98,62,10,29.98,29.92,0,0,0,0.00
2013-3-28,61.7,50.7,42.3,52.6,41.8,-47.6,98,77,1,30.12,29.97,0,0,0,0.01
2013-3-29,61.3,51.0,42.1,48.9,42.0,-49.2,98,77,8,30.25,30.13,0,0,0,0.00
2013-3-30,61.3,51.3,40.8,49.1,43.4,-14.3,98,77,6,30.26,30.06,3,0,0,0.00
2013-3-31,68.0,54.2,44.1,49.7,37.7,-49.6,98,61,5,30.07,29.87,1,0,0,0.00